Aérodrome :
LOGIN :

S'inscrire | Disclaimer

   EN    FR    IT 

 










Légende :    VFR   VFR Marginal   IFR   IFR Intensif   IFR Très Intensif
Visi : 
Plafond : 
>= 8 km
>= 3000ft
5 à 8 km
1000 à 3000 ft
1500m à 5 km
500 à 1000 ft
800 à 1500m
200 à 500 ft
< 800m
< 200 ft
Symboles :   Orages  Brouillard  Fortes neiges  Fortes précipitations  Vent > 20 kt
SIGMETs :   Divers  Orages  Givrage  Turbulence  Onde Orograph.  Cendres Volcan.







- Altitude de l'aérodrome : 194 ft
- Code IATA : LME
- Voir les cartes d'approche


LFRM - Le Mans

DERNIER METAR :
  • 251200Z AUTO 28009KT 240V330 9999 BKN028 BKN034 17/10 Q1018 TEMPO SHRA BKN020TCU

METARs EXPIRÉS :
  • 251130Z AUTO 29007KT 250V340 9999 BKN023 BKN028 16/10 Q1018 TEMPO SHRA BKN020TCU
  • 251100Z AUTO 30007KT 230V360 9999 BKN018 BKN047 BKN062 16/11 Q1018 TEMPO 3000 -RADZ OVC005
  • 251030Z AUTO 30007KT 260V340 9999 SCT016/// BKN024/// BKN043/// ///CB 15/11 Q1018 TEMPO 3000 -RADZ BECMG BKN020
  • 251000Z AUTO 32007KT 280V350 9999 FEW010/// BKN015/// BKN029/// ///TCU 14/12 Q1017 TEMPO 3000 -RADZ OVC005
  • 250930Z AUTO 22007KT 190V270 9999 SCT008 BKN013 OVC027 15/13 Q1017 TEMPO 3000 -RADZ OVC005

TAF TAF LFRM
Valide du 25 à 12h jusqu'au 26 à 12h UTC


251100Z 2512/2612 30010KT 9999 SCT022 SCT030
TEMPO 2512/2518 SHRA BKN020TCU
BECMG 2522/2524 VRB02KT
BECMG 2603/2605 25005KT
Pas de NOTAMs connus pour ce terrain.



MET'MAP, la Météo Aéronautique d'un coup d'oeil ! - Copyright ORBIFLY Décembre 2007 - Disclaimer

ORBIFLY MET'MAP TEAM :

Programmation & Développement : Alexandra Zaïnal
Conception & Développement : Baudouin d'Aumeries
Co-Programmation & Développement : Marc-Olivier Méhu
Soutien technique & logistique : Manuel Goepfert

Contact : metmap@orbifly.com




SOURCES & CREDITS :

   NOAA